sensor_id;sensor_type;location;lat;lon;timestamp;pressure;altitude;pressure_sealevel;temperature;humidity
73429;BME280;61643;49.564;17.412;2022-07-29T00:02:02;98274.06;;;19.32;58.64
73429;BME280;61643;49.564;17.412;2022-07-29T00:04:27;98278.38;;;19.25;59.05
73429;BME280;61643;49.564;17.412;2022-07-29T00:06:52;98283.03;;;19.24;58.99
73429;BME280;61643;49.564;17.412;2022-07-29T00:09:18;98279.69;;;19.27;58.78
73429;BME280;61643;49.564;17.412;2022-07-29T00:11:43;98289.78;;;19.27;59.06
73429;BME280;61643;49.564;17.412;2022-07-29T00:14:09;98283.53;;;19.26;59.17
73429;BME280;61643;49.564;17.412;2022-07-29T00:16:34;98291.88;;;19.30;59.12
73429;BME280;61643;49.564;17.412;2022-07-29T00:18:59;98296.53;;;19.29;58.96
73429;BME280;61643;49.564;17.412;2022-07-29T00:21:25;98301.50;;;19.27;58.96
73429;BME280;61643;49.564;17.412;2022-07-29T00:23:50;98298.81;;;19.36;58.98
73429;BME280;61643;49.564;17.412;2022-07-29T00:26:16;98313.09;;;19.33;59.31
73429;BME280;61643;49.564;17.412;2022-07-29T00:28:41;98310.81;;;19.26;58.95
73429;BME280;61643;49.564;17.412;2022-07-29T00:31:07;98306.78;;;19.24;59.48
73429;BME280;61643;49.564;17.412;2022-07-29T00:33:33;98308.00;;;19.17;59.88
73429;BME280;61643;49.564;17.412;2022-07-29T00:35:58;98302.81;;;19.07;60.20
73429;BME280;61643;49.564;17.412;2022-07-29T00:38:23;98302.31;;;19.05;59.99
73429;BME280;61643;49.564;17.412;2022-07-29T00:40:49;98309.69;;;19.05;60.43
73429;BME280;61643;49.564;17.412;2022-07-29T00:43:15;98302.75;;;18.99;61.13
73429;BME280;61643;49.564;17.412;2022-07-29T00:45:42;98307.63;;;18.88;61.83
73429;BME280;61643;49.564;17.412;2022-07-29T00:48:07;98300.91;;;18.72;63.35
73429;BME280;61643;49.564;17.412;2022-07-29T00:50:34;98292.25;;;18.56;63.35
73429;BME280;61643;49.564;17.412;2022-07-29T00:52:59;98306.78;;;18.65;63.43
73429;BME280;61643;49.564;17.412;2022-07-29T00:55:26;98305.97;;;18.65;62.95
73429;BME280;61643;49.564;17.412;2022-07-29T00:57:52;98304.16;;;18.47;64.23
73429;BME280;61643;49.564;17.412;2022-07-29T01:00:21;98302.47;;;18.51;64.24
73429;BME280;61643;49.564;17.412;2022-07-29T01:02:47;98297.41;;;18.44;65.09
73429;BME280;61643;49.564;17.412;2022-07-29T01:05:13;98289.72;;;18.46;65.59
73429;BME280;61643;49.564;17.412;2022-07-29T01:07:39;98293.75;;;18.49;64.22
73429;BME280;61643;49.564;17.412;2022-07-29T01:10:07;98296.72;;;18.52;65.08
73429;BME280;61643;49.564;17.412;2022-07-29T01:12:34;98289.06;;;18.41;65.71
73429;BME280;61643;49.564;17.412;2022-07-29T01:15:01;98289.47;;;18.20;66.50
73429;BME280;61643;49.564;17.412;2022-07-29T01:20:15;98286.94;;;18.10;67.36
73429;BME280;61643;49.564;17.412;2022-07-29T01:28:31;98276.84;;;18.25;67.25
73429;BME280;61643;49.564;17.412;2022-07-29T01:30:59;98277.06;;;18.14;67.90
73429;BME280;61643;49.564;17.412;2022-07-29T01:33:26;98272.72;;;18.13;68.15
73429;BME280;61643;49.564;17.412;2022-07-29T01:36:14;98273.34;;;18.10;67.92
73429;BME280;61643;49.564;17.412;2022-07-29T01:38:42;98257.41;;;17.90;68.50
73429;BME280;61643;49.564;17.412;2022-07-29T01:41:15;98268.69;;;17.70;69.30
73429;BME280;61643;49.564;17.412;2022-07-29T01:44:07;98262.13;;;17.57;71.17
73429;BME280;61643;49.564;17.412;2022-07-29T01:46:37;98254.22;;;17.56;70.88
73429;BME280;61643;49.564;17.412;2022-07-29T01:49:10;98250.19;;;17.53;70.29
73429;BME280;61643;49.564;17.412;2022-07-29T01:51:43;98253.16;;;17.57;70.02
73429;BME280;61643;49.564;17.412;2022-07-29T01:54:21;98254.84;;;17.53;70.00
73429;BME280;61643;49.564;17.412;2022-07-29T01:56:51;98255.53;;;17.45;71.04
73429;BME280;61643;49.564;17.412;2022-07-29T01:59:20;98246.75;;;17.48;70.36
73429;BME280;61643;49.564;17.412;2022-07-29T02:01:46;98246.53;;;17.44;70.32
73429;BME280;61643;49.564;17.412;2022-07-29T02:04:15;98250.00;;;17.50;70.14
73429;BME280;61643;49.564;17.412;2022-07-29T02:06:42;98250.69;;;17.42;71.14
73429;BME280;61643;49.564;17.412;2022-07-29T02:09:10;98243.53;;;17.46;69.78
73429;BME280;61643;49.564;17.412;2022-07-29T02:11:38;98245.72;;;17.44;71.33
73429;BME280;61643;49.564;17.412;2022-07-29T02:14:05;98254.84;;;17.53;70.81
73429;BME280;61643;49.564;17.412;2022-07-29T02:16:33;98240.03;;;17.59;70.53
73429;BME280;61643;49.564;17.412;2022-07-29T02:19:01;98246.75;;;17.48;71.72
73429;BME280;61643;49.564;17.412;2022-07-29T02:21:27;98237.09;;;17.55;70.66
73429;BME280;61643;49.564;17.412;2022-07-29T02:23:55;98238.75;;;17.56;70.94
73429;BME280;61643;49.564;17.412;2022-07-29T02:26:23;98233.06;;;17.53;71.42
73429;BME280;61643;49.564;17.412;2022-07-29T02:28:51;98238.78;;;17.51;71.92
73429;BME280;61643;49.564;17.412;2022-07-29T02:31:21;98239.09;;;17.50;71.96
73429;BME280;61643;49.564;17.412;2022-07-29T02:33:48;98238.59;;;17.48;72.43
73429;BME280;61643;49.564;17.412;2022-07-29T02:36:15;98247.56;;;17.48;72.66
73429;BME280;61643;49.564;17.412;2022-07-29T02:38:42;98246.00;;;17.61;71.74
73429;BME280;61643;49.564;17.412;2022-07-29T02:41:20;98238.50;;;17.53;72.43
73429;BME280;61643;49.564;17.412;2022-07-29T02:43:50;98239.41;;;17.48;73.14
73429;BME280;61643;49.564;17.412;2022-07-29T02:46:26;98241.22;;;17.53;72.29
73429;BME280;61643;49.564;17.412;2022-07-29T02:49:04;98247.47;;;17.53;72.45
73429;BME280;61643;49.564;17.412;2022-07-29T02:52:12;98236.50;;;17.58;73.81
73429;BME280;61643;49.564;17.412;2022-07-29T02:55:07;98238.66;;;17.61;72.18
73429;BME280;61643;49.564;17.412;2022-07-29T02:57:44;98233.41;;;17.65;71.84
73429;BME280;61643;49.564;17.412;2022-07-29T03:00:12;98241.59;;;17.65;70.06
73429;BME280;61643;49.564;17.412;2022-07-29T03:02:40;98244.19;;;17.70;71.11
73429;BME280;61643;49.564;17.412;2022-07-29T03:05:09;98247.50;;;17.81;70.32
73429;BME280;61643;49.564;17.412;2022-07-29T03:07:36;98254.59;;;17.82;69.88
73429;BME280;61643;49.564;17.412;2022-07-29T03:10:04;98252.25;;;17.89;69.28
73429;BME280;61643;49.564;17.412;2022-07-29T03:12:31;98248.63;;;17.93;68.86
73429;BME280;61643;49.564;17.412;2022-07-29T03:14:57;98253.47;;;17.96;69.06
73429;BME280;61643;49.564;17.412;2022-07-29T03:17:24;98255.28;;;18.01;69.10
73429;BME280;61643;49.564;17.412;2022-07-29T03:19:50;98253.47;;;17.96;69.08
73429;BME280;61643;49.564;17.412;2022-07-29T03:22:16;98254.97;;;17.89;70.17
73429;BME280;61643;49.564;17.412;2022-07-29T03:24:42;98250.03;;;17.91;69.69
73429;BME280;61643;49.564;17.412;2022-07-29T03:27:07;98249.53;;;17.89;70.00
73429;BME280;61643;49.564;17.412;2022-07-29T03:29:33;98250.34;;;17.89;69.81
73429;BME280;61643;49.564;17.412;2022-07-29T03:31:58;98252.66;;;17.82;69.80
73429;BME280;61643;49.564;17.412;2022-07-29T03:34:23;98250.53;;;17.65;68.89
73429;BME280;61643;49.564;17.412;2022-07-29T03:36:49;98254.19;;;17.61;68.81
73429;BME280;61643;49.564;17.412;2022-07-29T03:39:17;98252.16;;;17.66;67.88
73429;BME280;61643;49.564;17.412;2022-07-29T03:41:44;98249.53;;;17.75;66.01
73429;BME280;61643;49.564;17.412;2022-07-29T03:44:12;98246.28;;;17.73;65.17
73429;BME280;61643;49.564;17.412;2022-07-29T03:46:39;98254.19;;;17.75;65.72
73429;BME280;61643;49.564;17.412;2022-07-29T03:49:05;98247.22;;;17.82;66.25
73429;BME280;61643;49.564;17.412;2022-07-29T03:51:33;98249.34;;;17.85;66.15
73429;BME280;61643;49.564;17.412;2022-07-29T03:54:02;98234.63;;;17.86;66.31
73429;BME280;61643;49.564;17.412;2022-07-29T03:56:28;98234.63;;;17.86;66.89
73429;BME280;61643;49.564;17.412;2022-07-29T03:58:55;98235.81;;;17.80;66.72
73429;BME280;61643;49.564;17.412;2022-07-29T04:01:22;98227.16;;;17.78;67.87
73429;BME280;61643;49.564;17.412;2022-07-29T04:03:48;98230.97;;;17.77;68.21
73429;BME280;61643;49.564;17.412;2022-07-29T04:06:14;98239.06;;;17.82;67.03
73429;BME280;61643;49.564;17.412;2022-07-29T04:08:40;98237.63;;;17.85;67.47
73429;BME280;61643;49.564;17.412;2022-07-29T04:11:05;98241.56;;;17.92;67.24
73429;BME280;61643;49.564;17.412;2022-07-29T04:13:32;98239.94;;;17.91;67.38
73429;BME280;61643;49.564;17.412;2022-07-29T04:15:58;98238.44;;;17.85;69.08
73429;BME280;61643;49.564;17.412;2022-07-29T04:18:24;98243.69;;;17.95;66.99
73429;BME280;61643;49.564;17.412;2022-07-29T04:20:49;98241.47;;;17.97;66.54
73429;BME280;61643;49.564;17.412;2022-07-29T04:23:15;98237.91;;;18.10;66.75
73429;BME280;61643;49.564;17.412;2022-07-29T04:25:41;98240.31;;;18.26;67.31
73429;BME280;61643;49.564;17.412;2022-07-29T04:28:07;98240.31;;;18.26;65.72
73429;BME280;61643;49.564;17.412;2022-07-29T04:30:33;98242.34;;;18.20;68.61
73429;BME280;61643;49.564;17.412;2022-07-29T04:33:00;98239.53;;;18.11;69.73
73429;BME280;61643;49.564;17.412;2022-07-29T04:35:26;98240.59;;;18.38;69.49
73429;BME280;61643;49.564;17.412;2022-07-29T04:37:52;98238.06;;;18.55;68.75
73429;BME280;61643;49.564;17.412;2022-07-29T04:40:18;98238.69;;;18.74;68.05
73429;BME280;61643;49.564;17.412;2022-07-29T04:42:43;98247.88;;;19.00;66.82
73429;BME280;61643;49.564;17.412;2022-07-29T04:45:09;98250.72;;;19.17;64.47
73429;BME280;61643;49.564;17.412;2022-07-29T04:47:34;98256.69;;;19.42;62.96
73429;BME280;61643;49.564;17.412;2022-07-29T04:50:00;98259.97;;;19.61;62.57
73429;BME280;61643;49.564;17.412;2022-07-29T04:52:26;98255.22;;;19.75;63.75
73429;BME280;61643;49.564;17.412;2022-07-29T04:54:51;98252.88;;;19.91;61.79
73429;BME280;61643;49.564;17.412;2022-07-29T04:57:16;98263.19;;;20.02;61.15
73429;BME280;61643;49.564;17.412;2022-07-29T04:59:42;98257.06;;;19.97;60.74
73429;BME280;61643;49.564;17.412;2022-07-29T05:02:07;98259.78;;;19.88;61.38
73429;BME280;61643;49.564;17.412;2022-07-29T05:04:32;98265.53;;;19.78;61.79
73429;BME280;61643;49.564;17.412;2022-07-29T05:06:58;98261.28;;;19.63;62.09
73429;BME280;61643;49.564;17.412;2022-07-29T05:09:23;98265.88;;;19.46;62.87
73429;BME280;61643;49.564;17.412;2022-07-29T05:11:49;98264.72;;;19.47;63.30
73429;BME280;61643;49.564;17.412;2022-07-29T05:14:14;98270.13;;;19.38;63.30
73429;BME280;61643;49.564;17.412;2022-07-29T05:16:40;98260.66;;;19.13;63.39
73429;BME280;61643;49.564;17.412;2022-07-29T05:19:05;98278.50;;;19.20;63.39
73429;BME280;61643;49.564;17.412;2022-07-29T05:21:31;98270.13;;;19.16;65.27
73429;BME280;61643;49.564;17.412;2022-07-29T05:23:56;98261.63;;;19.17;65.42
73429;BME280;61643;49.564;17.412;2022-07-29T05:26:21;98262.75;;;19.16;65.77
73429;BME280;61643;49.564;17.412;2022-07-29T05:28:47;98272.69;;;19.12;64.02
73429;BME280;61643;49.564;17.412;2022-07-29T05:31:12;98276.03;;;19.09;64.42
73429;BME280;61643;49.564;17.412;2022-07-29T05:33:40;98278.75;;;19.09;65.34
73429;BME280;61643;49.564;17.412;2022-07-29T05:36:06;98265.34;;;19.22;64.88
73429;BME280;61643;49.564;17.412;2022-07-29T05:38:35;98271.81;;;19.48;63.59
73429;BME280;61643;49.564;17.412;2022-07-29T05:41:01;98256.63;;;19.64;62.75
73429;BME280;61643;49.564;17.412;2022-07-29T05:43:27;98265.72;;;19.82;62.62
73429;BME280;61643;49.564;17.412;2022-07-29T05:45:53;98270.53;;;19.85;61.96
73429;BME280;61643;49.564;17.412;2022-07-29T05:48:18;98259.34;;;20.03;61.22
73429;BME280;61643;49.564;17.412;2022-07-29T05:50:44;98269.69;;;20.24;60.57
73429;BME280;61643;49.564;17.412;2022-07-29T05:53:09;98264.22;;;20.24;60.88
73429;BME280;61643;49.564;17.412;2022-07-29T05:55:34;98256.72;;;20.29;60.37
73429;BME280;61643;49.564;17.412;2022-07-29T05:58:00;98272.47;;;20.32;60.58
73429;BME280;61643;49.564;17.412;2022-07-29T06:00:25;98263.31;;;20.37;60.75
73429;BME280;61643;49.564;17.412;2022-07-29T06:02:51;98277.03;;;20.54;61.00
73429;BME280;61643;49.564;17.412;2022-07-29T06:05:16;98278.94;;;20.45;60.50
73429;BME280;61643;49.564;17.412;2022-07-29T06:07:42;98266.88;;;20.63;60.34
73429;BME280;61643;49.564;17.412;2022-07-29T06:10:08;98268.19;;;20.74;60.15
73429;BME280;61643;49.564;17.412;2022-07-29T06:12:33;98268.19;;;20.74;59.84
73429;BME280;61643;49.564;17.412;2022-07-29T06:14:58;98265.59;;;20.78;60.26
73429;BME280;61643;49.564;17.412;2022-07-29T06:17:24;98284.59;;;20.74;60.47
73429;BME280;61643;49.564;17.412;2022-07-29T06:19:49;98276.72;;;20.73;60.04
73429;BME280;61643;49.564;17.412;2022-07-29T06:22:15;98276.88;;;20.68;60.29
73429;BME280;61643;49.564;17.412;2022-07-29T06:24:42;98290.03;;;20.66;60.58
73429;BME280;61643;49.564;17.412;2022-07-29T06:27:12;98290.41;;;20.73;60.02
73429;BME280;61643;49.564;17.412;2022-07-29T06:29:37;98290.06;;;20.74;60.02
73429;BME280;61643;49.564;17.412;2022-07-29T06:32:03;98288.28;;;20.95;59.51
73429;BME280;61643;49.564;17.412;2022-07-29T06:34:28;98300.56;;;21.15;59.25
73429;BME280;61643;49.564;17.412;2022-07-29T06:36:54;98305.84;;;21.37;59.68
73429;BME280;61643;49.564;17.412;2022-07-29T06:39:19;98298.06;;;21.56;58.43
73429;BME280;61643;49.564;17.412;2022-07-29T06:41:49;98309.47;;;21.67;57.71
73429;BME280;61643;49.564;17.412;2022-07-29T06:44:15;98307.22;;;21.69;57.70
73429;BME280;61643;49.564;17.412;2022-07-29T06:46:41;98314.13;;;21.75;57.64
73429;BME280;61643;49.564;17.412;2022-07-29T06:49:07;98312.56;;;21.66;57.76
73429;BME280;61643;49.564;17.412;2022-07-29T06:51:32;98311.31;;;21.46;57.95
73429;BME280;61643;49.564;17.412;2022-07-29T06:53:58;98305.34;;;21.35;58.63
73429;BME280;61643;49.564;17.412;2022-07-29T06:56:24;98305.69;;;21.34;58.22
73429;BME280;61643;49.564;17.412;2022-07-29T06:58:50;98303.44;;;21.36;58.85
73429;BME280;61643;49.564;17.412;2022-07-29T07:01:15;98300.53;;;21.41;58.59
73429;BME280;61643;49.564;17.412;2022-07-29T07:03:41;98293.25;;;21.53;58.70
73429;BME280;61643;49.564;17.412;2022-07-29T07:06:07;98292.13;;;21.54;57.77
73429;BME280;61643;49.564;17.412;2022-07-29T07:08:32;98293.88;;;21.59;59.03
73429;BME280;61643;49.564;17.412;2022-07-29T07:10:58;98299.78;;;21.78;60.54
73429;BME280;61643;49.564;17.412;2022-07-29T07:13:24;98305.53;;;22.02;58.66
73429;BME280;61643;49.564;17.412;2022-07-29T07:15:49;98287.66;;;21.96;58.31
73429;BME280;61643;49.564;17.412;2022-07-29T07:18:16;98295.88;;;21.96;57.61
73429;BME280;61643;49.564;17.412;2022-07-29T07:20:42;98291.19;;;21.97;58.40
73429;BME280;61643;49.564;17.412;2022-07-29T07:23:07;98295.53;;;21.89;60.57
73429;BME280;61643;49.564;17.412;2022-07-29T07:25:33;98293.13;;;21.96;58.41
73429;BME280;61643;49.564;17.412;2022-07-29T07:27:58;98293.13;;;21.96;58.18
73429;BME280;61643;49.564;17.412;2022-07-29T07:30:24;98288.66;;;21.92;57.99
73429;BME280;61643;49.564;17.412;2022-07-29T07:32:49;98293.47;;;21.95;58.27
73429;BME280;61643;49.564;17.412;2022-07-29T07:35:15;98295.69;;;22.01;58.16
73429;BME280;61643;49.564;17.412;2022-07-29T07:37:40;98298.34;;;22.19;58.66
73429;BME280;61643;49.564;17.412;2022-07-29T07:40:07;98300.72;;;22.29;57.57
73429;BME280;61643;49.564;17.412;2022-07-29T07:42:33;98302.28;;;22.38;57.31
73429;BME280;61643;49.564;17.412;2022-07-29T07:44:59;98289.88;;;22.32;58.03
73429;BME280;61643;49.564;17.412;2022-07-29T07:47:25;98296.38;;;22.28;58.90
73429;BME280;61643;49.564;17.412;2022-07-29T07:49:52;98299.94;;;22.28;58.72
73429;BME280;61643;49.564;17.412;2022-07-29T07:52:19;98286.72;;;22.22;58.91
73429;BME280;61643;49.564;17.412;2022-07-29T07:54:45;98293.94;;;21.97;59.85
73429;BME280;61643;49.564;17.412;2022-07-29T07:57:11;98300.19;;;22.06;60.09
73429;BME280;61643;49.564;17.412;2022-07-29T07:59:37;98297.94;;;21.99;59.40
73429;BME280;61643;49.564;17.412;2022-07-29T08:02:03;98294.88;;;22.01;61.45
73429;BME280;61643;49.564;17.412;2022-07-29T08:04:28;98301.63;;;22.12;60.66
73429;BME280;61643;49.564;17.412;2022-07-29T08:06:55;98305.47;;;22.11;61.50
73429;BME280;61643;49.564;17.412;2022-07-29T08:09:21;98298.28;;;22.06;60.61
73429;BME280;61643;49.564;17.412;2022-07-29T08:11:48;98301.63;;;22.12;59.37
73429;BME280;61643;49.564;17.412;2022-07-29T08:14:13;98309.53;;;22.14;60.70
73429;BME280;61643;49.564;17.412;2022-07-29T08:16:40;98312.06;;;22.19;60.83
73429;BME280;61643;49.564;17.412;2022-07-29T08:19:06;98298.88;;;22.41;61.71
73429;BME280;61643;49.564;17.412;2022-07-29T08:21:31;98304.59;;;22.57;60.83
73429;BME280;61643;49.564;17.412;2022-07-29T08:23:57;98308.72;;;22.72;59.62
73429;BME280;61643;49.564;17.412;2022-07-29T08:26:42;98307.19;;;22.83;57.84
73429;BME280;61643;49.564;17.412;2022-07-29T08:29:07;98299.75;;;22.83;58.78
73429;BME280;61643;49.564;17.412;2022-07-29T08:31:33;98307.84;;;22.80;58.83
73429;BME280;61643;49.564;17.412;2022-07-29T08:33:58;98310.31;;;22.73;61.05
73429;BME280;61643;49.564;17.412;2022-07-29T08:36:25;98305.78;;;22.77;59.65
73429;BME280;61643;49.564;17.412;2022-07-29T08:38:51;98302.44;;;22.71;58.88
73429;BME280;61643;49.564;17.412;2022-07-29T08:41:18;98306.31;;;22.70;60.53
73429;BME280;61643;49.564;17.412;2022-07-29T08:43:44;98313.28;;;22.68;60.01
73429;BME280;61643;49.564;17.412;2022-07-29T08:46:09;98310.03;;;22.66;60.22
73429;BME280;61643;49.564;17.412;2022-07-29T08:48:36;98301.50;;;22.67;60.01
73429;BME280;61643;49.564;17.412;2022-07-29T08:51:01;98293.53;;;22.74;60.53
73429;BME280;61643;49.564;17.412;2022-07-29T08:53:28;98295.94;;;22.76;60.60
73429;BME280;61643;49.564;17.412;2022-07-29T08:55:55;98294.25;;;22.83;60.06
73429;BME280;61643;49.564;17.412;2022-07-29T08:58:21;98298.88;;;22.91;60.33
73429;BME280;61643;49.564;17.412;2022-07-29T09:00:54;98305.38;;;23.08;58.44
73429;BME280;61643;49.564;17.412;2022-07-29T09:03:23;98288.38;;;23.14;57.59
73429;BME280;61643;49.564;17.412;2022-07-29T09:05:50;98298.59;;;23.26;59.12
73429;BME280;61643;49.564;17.412;2022-07-29T09:08:16;98299.50;;;23.30;56.72
73429;BME280;61643;49.564;17.412;2022-07-29T09:10:43;98291.53;;;23.37;60.32
73429;BME280;61643;49.564;17.412;2022-07-29T09:13:09;98284.84;;;23.46;57.20
73429;BME280;61643;49.564;17.412;2022-07-29T09:15:34;98277.19;;;23.52;56.37
73429;BME280;61643;49.564;17.412;2022-07-29T09:18:00;98282.63;;;23.73;55.82
73429;BME280;61643;49.564;17.412;2022-07-29T09:20:27;98276.13;;;23.89;55.94
73429;BME280;61643;49.564;17.412;2022-07-29T09:23:13;98276.81;;;24.11;56.43
73429;BME280;61643;49.564;17.412;2022-07-29T09:25:40;98276.16;;;24.26;54.91
73429;BME280;61643;49.564;17.412;2022-07-29T09:28:14;98279.13;;;24.33;53.14
73429;BME280;61643;49.564;17.412;2022-07-29T09:30:56;98266.84;;;24.42;52.96
73429;BME280;61643;49.564;17.412;2022-07-29T09:33:25;98278.22;;;24.29;52.72
73429;BME280;61643;49.564;17.412;2022-07-29T09:36:06;98264.09;;;24.42;54.77
73429;BME280;61643;49.564;17.412;2022-07-29T09:38:33;98263.97;;;24.51;53.62
73429;BME280;61643;49.564;17.412;2022-07-29T09:41:02;98266.47;;;24.68;51.70
73429;BME280;61643;49.564;17.412;2022-07-29T09:43:28;98255.66;;;24.75;50.74
73429;BME280;61643;49.564;17.412;2022-07-29T09:45:53;98253.03;;;24.91;50.18
73429;BME280;61643;49.564;17.412;2022-07-29T09:48:21;98250.88;;;25.12;51.07
73429;BME280;61643;49.564;17.412;2022-07-29T09:50:47;98253.38;;;25.17;51.62
73429;BME280;61643;49.564;17.412;2022-07-29T09:53:36;98257.72;;;25.18;51.84
73429;BME280;61643;49.564;17.412;2022-07-29T09:56:02;98252.44;;;25.41;50.09
73429;BME280;61643;49.564;17.412;2022-07-29T09:58:28;98250.50;;;25.41;50.36
73429;BME280;61643;49.564;17.412;2022-07-29T10:00:56;98251.13;;;25.51;48.71
73429;BME280;61643;49.564;17.412;2022-07-29T10:03:22;98249.03;;;25.60;52.42
73429;BME280;61643;49.564;17.412;2022-07-29T10:06:08;98243.19;;;25.77;47.92
73429;BME280;61643;49.564;17.412;2022-07-29T10:08:34;98246.91;;;25.84;46.81
73429;BME280;61643;49.564;17.412;2022-07-29T10:11:10;98235.63;;;25.74;48.37
73429;BME280;61643;49.564;17.412;2022-07-29T10:13:36;98234.91;;;25.77;48.65
73429;BME280;61643;49.564;17.412;2022-07-29T10:16:02;98236.69;;;25.69;48.82
73429;BME280;61643;49.564;17.412;2022-07-29T10:18:27;98235.16;;;25.56;49.87
73429;BME280;61643;49.564;17.412;2022-07-29T10:20:54;98240.69;;;25.56;49.31
73429;BME280;61643;49.564;17.412;2022-07-29T10:23:20;98239.97;;;25.59;49.54
73429;BME280;61643;49.564;17.412;2022-07-29T10:25:45;98239.88;;;25.56;49.31
73429;BME280;61643;49.564;17.412;2022-07-29T10:28:11;98238.91;;;25.64;49.41
73429;BME280;61643;49.564;17.412;2022-07-29T10:30:37;98239.44;;;25.69;49.03
73429;BME280;61643;49.564;17.412;2022-07-29T10:35:47;98241.56;;;25.60;49.58
73429;BME280;61643;49.564;17.412;2022-07-29T10:38:30;98234.38;;;25.56;50.71
73429;BME280;61643;49.564;17.412;2022-07-29T10:46:23;98235.97;;;25.72;49.99
73429;BME280;61643;49.564;17.412;2022-07-29T10:54:58;98236.34;;;25.71;50.16
73429;BME280;61643;49.564;17.412;2022-07-29T10:57:30;98238.13;;;25.79;48.66
73429;BME280;61643;49.564;17.412;2022-07-29T11:05:14;98235.09;;;26.00;49.68
73429;BME280;61643;49.564;17.412;2022-07-29T11:10:42;98230.09;;;26.05;49.32
73429;BME280;61643;49.564;17.412;2022-07-29T11:13:08;98226.34;;;26.13;48.50
73429;BME280;61643;49.564;17.412;2022-07-29T11:15:52;98227.84;;;26.26;48.02
73429;BME280;61643;49.564;17.412;2022-07-29T11:18:18;98229.53;;;26.31;49.17
73429;BME280;61643;49.564;17.412;2022-07-29T11:20:48;98223.03;;;26.39;49.42
73429;BME280;61643;49.564;17.412;2022-07-29T11:23:29;98224.19;;;26.38;50.05
73429;BME280;61643;49.564;17.412;2022-07-29T11:28:48;98225.91;;;26.27;49.49
73429;BME280;61643;49.564;17.412;2022-07-29T11:31:16;98223.28;;;26.34;49.39
73429;BME280;61643;49.564;17.412;2022-07-29T11:33:44;98218.66;;;26.38;49.15
73429;BME280;61643;49.564;17.412;2022-07-29T11:36:10;98221.34;;;26.34;47.50
73429;BME280;61643;49.564;17.412;2022-07-29T11:38:37;98216.63;;;26.35;48.54
73429;BME280;61643;49.564;17.412;2022-07-29T11:46:13;98223.44;;;26.22;50.60
73429;BME280;61643;49.564;17.412;2022-07-29T11:48:43;98219.78;;;26.18;49.73
73429;BME280;61643;49.564;17.412;2022-07-29T11:51:09;98231.63;;;26.18;49.99
73429;BME280;61643;49.564;17.412;2022-07-29T11:53:36;98226.25;;;26.10;50.15
73429;BME280;61643;49.564;17.412;2022-07-29T11:56:01;98224.81;;;26.16;49.44
73429;BME280;61643;49.564;17.412;2022-07-29T11:58:28;98220.66;;;26.22;49.04
73429;BME280;61643;49.564;17.412;2022-07-29T12:01:13;98223.28;;;26.34;49.22
73429;BME280;61643;49.564;17.412;2022-07-29T12:03:39;98205.66;;;26.38;49.99
73429;BME280;61643;49.564;17.412;2022-07-29T12:06:13;98209.38;;;26.46;47.88
73429;BME280;61643;49.564;17.412;2022-07-29T12:08:42;98205.09;;;26.49;48.09
73429;BME280;61643;49.564;17.412;2022-07-29T12:11:16;98212.09;;;26.27;47.88
73429;BME280;61643;49.564;17.412;2022-07-29T12:13:41;98213.13;;;26.19;48.10
73429;BME280;61643;49.564;17.412;2022-07-29T12:16:06;98214.97;;;26.15;49.66
73429;BME280;61643;49.564;17.412;2022-07-29T12:18:32;98217.72;;;25.99;51.24
73429;BME280;61643;49.564;17.412;2022-07-29T12:21:02;98217.56;;;25.92;51.79
73429;BME280;61643;49.564;17.412;2022-07-29T12:23:31;98220.66;;;25.90;51.38
73429;BME280;61643;49.564;17.412;2022-07-29T12:25:57;98216.25;;;25.86;52.33
73429;BME280;61643;49.564;17.412;2022-07-29T12:28:23;98213.22;;;25.75;51.03
73429;BME280;61643;49.564;17.412;2022-07-29T12:30:49;98216.84;;;25.79;51.90
73429;BME280;61643;49.564;17.412;2022-07-29T12:33:22;98218.81;;;25.79;52.13
73429;BME280;61643;49.564;17.412;2022-07-29T12:36:00;98212.13;;;25.80;51.96
73429;BME280;61643;49.564;17.412;2022-07-29T12:38:26;98225.13;;;25.79;53.87
73429;BME280;61643;49.564;17.412;2022-07-29T12:40:53;98219.34;;;25.69;52.65
73429;BME280;61643;49.564;17.412;2022-07-29T12:43:23;98221.81;;;25.58;52.49
73429;BME280;61643;49.564;17.412;2022-07-29T12:45:54;98225.22;;;25.39;53.42
73429;BME280;61643;49.564;17.412;2022-07-29T12:48:36;98209.13;;;25.10;52.54
73429;BME280;61643;49.564;17.412;2022-07-29T12:51:03;98222.03;;;24.94;52.75
73429;BME280;61643;49.564;17.412;2022-07-29T12:53:29;98223.78;;;24.86;52.87
73429;BME280;61643;49.564;17.412;2022-07-29T12:55:56;98216.22;;;24.71;54.23
73429;BME280;61643;49.564;17.412;2022-07-29T12:58:30;98233.91;;;24.70;54.57
73429;BME280;61643;49.564;17.412;2022-07-29T13:01:15;98231.63;;;24.60;54.66
73429;BME280;61643;49.564;17.412;2022-07-29T13:06:27;98224.31;;;24.40;54.63
73429;BME280;61643;49.564;17.412;2022-07-29T13:11:35;98211.53;;;24.20;55.28
73429;BME280;61643;49.564;17.412;2022-07-29T13:14:01;98216.94;;;24.16;55.99
73429;BME280;61643;49.564;17.412;2022-07-29T13:16:27;98225.47;;;24.02;55.28
73429;BME280;61643;49.564;17.412;2022-07-29T13:19:07;98219.75;;;24.08;55.84
73429;BME280;61643;49.564;17.412;2022-07-29T13:21:33;98213.56;;;23.86;55.42
73429;BME280;61643;49.564;17.412;2022-07-29T13:24:06;98215.63;;;23.89;56.47
73429;BME280;61643;49.564;17.412;2022-07-29T13:26:32;98219.19;;;23.78;55.53
73429;BME280;61643;49.564;17.412;2022-07-29T13:28:57;98223.19;;;23.68;55.60
73429;BME280;61643;49.564;17.412;2022-07-29T13:31:23;98212.19;;;23.68;56.64
73429;BME280;61643;49.564;17.412;2022-07-29T13:33:49;98215.88;;;23.72;57.40
73429;BME280;61643;49.564;17.412;2022-07-29T13:36:14;98210.13;;;23.65;58.14
73429;BME280;61643;49.564;17.412;2022-07-29T13:38:39;98206.22;;;23.66;57.69